createdAt,value
2022-09-13T00:01:31.478Z,1.55
2022-09-13T00:03:58.663Z,1.77
2022-09-13T00:06:25.750Z,2.83
2022-09-13T00:08:54.131Z,1.92
2022-09-13T00:11:24.426Z,1.63
2022-09-13T00:13:52.911Z,1.60
2022-09-13T00:16:22.143Z,1.83
2022-09-13T00:18:49.451Z,1.50
2022-09-13T00:21:19.055Z,1.27
2022-09-13T00:23:47.691Z,1.20
2022-09-13T00:26:20.450Z,1.27
2022-09-13T00:28:53.118Z,1.10
2022-09-13T00:31:21.489Z,1.27
2022-09-13T00:33:48.620Z,1.27
2022-09-13T00:36:16.262Z,1.60
2022-09-13T00:38:43.926Z,1.45
2022-09-13T00:41:17.296Z,1.70
2022-09-13T00:43:47.350Z,1.60
2022-09-13T00:46:27.598Z,1.20
2022-09-13T00:49:00.296Z,1.10
2022-09-13T00:51:28.935Z,1.20
2022-09-13T00:53:59.476Z,1.38
2022-09-13T00:56:43.972Z,1.40
2022-09-13T00:59:20.091Z,1.30
2022-09-13T01:01:51.639Z,1.23
2022-09-13T01:04:22.616Z,1.55
2022-09-13T01:06:54.175Z,1.33
2022-09-13T01:09:21.371Z,1.23
2022-09-13T01:11:50.572Z,1.80
2022-09-13T01:14:19.647Z,1.58
2022-09-13T01:16:48.015Z,1.25
2022-09-13T01:19:16.571Z,2.38
2022-09-13T01:22:02.752Z,1.48
2022-09-13T01:24:41.002Z,1.38
2022-09-13T01:27:38.369Z,1.20
2022-09-13T01:30:11.530Z,1.40
2022-09-13T01:33:05.879Z,1.13
2022-09-13T01:36:00.848Z,1.20
2022-09-13T01:38:50.928Z,1.13
2022-09-13T01:41:55.937Z,1.20
2022-09-13T01:44:38.805Z,1.05
2022-09-13T01:47:10.468Z,1.30
2022-09-13T01:49:47.401Z,1.10
2022-09-13T01:52:24.081Z,1.10
2022-09-13T01:55:16.876Z,0.97
2022-09-13T01:57:49.616Z,1.40
2022-09-13T02:00:18.276Z,1.13
2022-09-13T02:03:04.429Z,1.20
2022-09-13T02:05:43.054Z,1.30
2022-09-13T02:08:20.873Z,1.10
2022-09-13T02:10:53.794Z,1.70
2022-09-13T02:13:26.626Z,1.20
2022-09-13T02:15:59.173Z,1.20
2022-09-13T02:18:37.133Z,1.55
2022-09-13T02:21:18.329Z,1.15
2022-09-13T02:23:51.461Z,1.40
2022-09-13T02:26:20.421Z,2.08
2022-09-13T02:28:54.145Z,1.42
2022-09-13T02:31:29.092Z,1.85
2022-09-13T02:34:03.917Z,1.30
2022-09-13T02:36:36.831Z,2.30
2022-09-13T02:39:10.174Z,2.25
2022-09-13T02:42:12.745Z,2.63
2022-09-13T02:44:50.547Z,1.83
2022-09-13T02:47:42.544Z,1.60
2022-09-13T02:50:21.278Z,1.52
2022-09-13T02:53:02.850Z,1.30
2022-09-13T02:55:48.606Z,1.40
2022-09-13T02:58:42.284Z,1.58
2022-09-13T03:01:09.561Z,2.10
2022-09-13T03:03:36.951Z,1.43
2022-09-13T03:06:04.411Z,1.48
2022-09-13T03:08:31.987Z,1.65
2022-09-13T03:11:15.602Z,1.40
2022-09-13T03:14:08.202Z,1.23
2022-09-13T03:17:06.047Z,1.23
2022-09-13T03:19:53.659Z,1.30
2022-09-13T03:22:32.479Z,1.38
2022-09-13T03:25:15.063Z,2.00
2022-09-13T03:28:01.771Z,1.23
2022-09-13T03:30:29.663Z,1.48
2022-09-13T03:33:23.707Z,1.97
2022-09-13T03:36:14.195Z,2.60
2022-09-13T03:38:59.312Z,1.85
2022-09-13T03:41:35.036Z,1.52
2022-09-13T03:44:06.092Z,2.38
2022-09-13T03:46:42.660Z,1.75
2022-09-13T03:49:14.236Z,1.90
2022-09-13T03:51:44.532Z,2.30
2022-09-13T03:54:16.876Z,2.03
2022-09-13T03:56:45.196Z,2.00
2022-09-13T03:59:12.252Z,1.88
2022-09-13T04:01:39.348Z,2.10
2022-09-13T04:04:06.368Z,1.50
2022-09-13T04:06:33.408Z,1.63
2022-09-13T04:09:00.753Z,1.10
2022-09-13T04:11:28.284Z,1.88
2022-09-13T04:13:55.436Z,1.60
2022-09-13T04:16:22.522Z,1.45
2022-09-13T04:18:49.581Z,1.33
2022-09-13T04:21:17.685Z,1.10
2022-09-13T04:23:49.425Z,1.38
2022-09-13T04:26:17.442Z,1.30
2022-09-13T04:28:44.470Z,1.35
2022-09-13T04:31:11.558Z,1.98
2022-09-13T04:33:38.625Z,1.35
2022-09-13T04:36:05.857Z,1.48
2022-09-13T04:38:32.913Z,1.30
2022-09-13T04:40:59.997Z,1.40
2022-09-13T04:43:27.181Z,1.27
2022-09-13T04:45:54.368Z,1.00
2022-09-13T04:48:21.465Z,1.17
2022-09-13T04:50:49.149Z,1.10
2022-09-13T04:53:16.269Z,1.30
2022-09-13T04:55:43.333Z,1.50
2022-09-13T04:58:10.361Z,1.88
2022-09-13T05:00:37.489Z,1.65
2022-09-13T05:03:04.581Z,2.35
2022-09-13T05:05:32.490Z,1.58
2022-09-13T05:07:59.571Z,1.52
2022-09-13T05:10:26.702Z,1.67
2022-09-13T05:12:53.805Z,1.20
2022-09-13T05:15:20.953Z,1.07
2022-09-13T05:17:47.982Z,2.37
2022-09-13T05:20:15.122Z,2.05
2022-09-13T05:22:42.158Z,1.98
2022-09-13T05:25:09.430Z,1.75
2022-09-13T05:27:36.494Z,1.40
2022-09-13T05:30:04.086Z,1.30
2022-09-13T05:32:32.303Z,1.20
2022-09-13T05:34:59.346Z,1.08
2022-09-13T05:37:26.462Z,1.37
2022-09-13T05:40:10.777Z,1.10
2022-09-13T05:42:38.531Z,0.90
2022-09-13T05:45:06.773Z,1.20
2022-09-13T05:47:33.816Z,1.20
2022-09-13T05:50:38.499Z,1.08
2022-09-13T05:52:54.955Z,1.10
2022-09-13T05:55:23.004Z,1.95
2022-09-13T05:57:50.342Z,1.35
2022-09-13T06:00:17.695Z,1.20
2022-09-13T06:02:44.753Z,1.38
2022-09-13T06:05:11.911Z,1.65
2022-09-13T06:07:42.823Z,1.75
2022-09-13T06:10:10.871Z,1.90
2022-09-13T06:12:38.191Z,1.65
2022-09-13T06:15:05.608Z,1.55
2022-09-13T06:17:32.675Z,2.15
2022-09-13T06:19:59.716Z,1.95
2022-09-13T06:22:32.953Z,1.88
2022-09-13T06:25:00.335Z,1.65
2022-09-13T06:27:29.839Z,1.73
2022-09-13T06:29:56.970Z,1.60
2022-09-13T06:32:24.079Z,2.50
2022-09-13T06:34:51.096Z,3.13
2022-09-13T06:37:18.264Z,2.15
2022-09-13T06:39:45.418Z,1.80
2022-09-13T06:42:12.488Z,5.22
2022-09-13T06:44:39.576Z,1.95
2022-09-13T06:47:06.737Z,2.97
2022-09-13T06:49:33.929Z,2.53
2022-09-13T06:52:00.999Z,2.00
2022-09-13T06:54:28.079Z,2.17
2022-09-13T06:56:55.196Z,2.40
2022-09-13T06:59:22.492Z,1.65
2022-09-13T07:01:49.698Z,1.95
2022-09-13T07:04:21.177Z,1.80
2022-09-13T07:06:49.866Z,2.13
2022-09-13T07:09:19.929Z,1.98
2022-09-13T07:11:48.681Z,1.80
2022-09-13T07:14:18.080Z,2.08
2022-09-13T07:16:46.465Z,2.05
2022-09-13T07:19:16.572Z,1.90
2022-09-13T07:21:44.009Z,1.87
2022-09-13T07:24:11.773Z,2.13
2022-09-13T07:26:39.185Z,1.17
2022-09-13T07:29:09.131Z,1.50
2022-09-13T07:31:39.289Z,1.35
2022-09-13T07:34:08.829Z,1.30
2022-09-13T07:36:36.449Z,1.35
2022-09-13T07:39:05.309Z,1.10
2022-09-13T07:41:33.858Z,1.38
2022-09-13T07:44:10.301Z,1.35
2022-09-13T07:46:39.885Z,1.20
2022-09-13T07:49:07.971Z,1.13
2022-09-13T07:51:38.451Z,0.90
2022-09-13T07:54:07.794Z,1.05
2022-09-13T07:56:36.716Z,1.23
2022-09-13T07:59:07.588Z,1.88
2022-09-13T08:01:36.399Z,2.05
2022-09-13T08:04:09.570Z,1.80
2022-09-13T08:06:40.754Z,0.88
2022-09-13T08:09:09.255Z,2.10
2022-09-13T08:11:51.643Z,1.53
2022-09-13T08:14:20.298Z,1.90
2022-09-13T08:16:47.589Z,3.20
2022-09-13T08:19:17.150Z,3.75
2022-09-13T08:21:45.258Z,4.57
2022-09-13T08:24:18.587Z,2.80
2022-09-13T08:26:46.167Z,2.97
2022-09-13T08:29:14.489Z,3.08
2022-09-13T08:31:41.796Z,1.87
2022-09-13T08:34:14.924Z,2.30
2022-09-13T08:36:42.438Z,2.33
2022-09-13T08:39:11.895Z,2.40
2022-09-13T08:41:42.286Z,2.22
2022-09-13T08:44:18.255Z,2.20
2022-09-13T08:46:46.783Z,3.13
2022-09-13T08:49:22.988Z,3.07
2022-09-13T08:51:54.463Z,3.33
2022-09-13T08:54:22.059Z,3.22
2022-09-13T08:56:55.716Z,3.22
2022-09-13T08:59:34.629Z,4.72
2022-09-13T09:02:10.739Z,7.03
2022-09-13T09:04:41.112Z,3.33
2022-09-13T09:07:22.565Z,3.37
2022-09-13T09:09:54.544Z,3.00
2022-09-13T09:12:28.060Z,2.97
2022-09-13T09:15:22.580Z,1.83
2022-09-13T09:18:12.305Z,2.08
2022-09-13T09:20:51.501Z,2.30
2022-09-13T09:23:21.957Z,0.95
2022-09-13T09:25:55.091Z,1.67
2022-09-13T09:28:22.249Z,2.50
2022-09-13T09:31:15.630Z,2.28
2022-09-13T09:33:54.896Z,2.53
2022-09-13T09:36:37.231Z,1.05
2022-09-13T09:39:05.745Z,1.07
2022-09-13T09:41:35.157Z,0.90
2022-09-13T09:44:28.572Z,0.73
2022-09-13T09:46:59.649Z,0.90
2022-09-13T09:49:58.052Z,0.73
2022-09-13T09:52:50.154Z,0.52
2022-09-13T09:55:31.741Z,1.10
2022-09-13T09:57:59.961Z,0.98
2022-09-13T10:00:31.101Z,2.38
2022-09-13T10:03:17.053Z,3.42
2022-09-13T10:05:44.259Z,1.77
2022-09-13T10:08:28.470Z,1.40
2022-09-13T10:10:59.344Z,2.57
2022-09-13T10:13:31.567Z,1.15
2022-09-13T10:16:23.451Z,0.77
2022-09-13T10:18:50.634Z,1.42
2022-09-13T10:21:17.652Z,1.13
2022-09-13T10:23:50.340Z,1.20
2022-09-13T10:26:21.038Z,2.20
2022-09-13T10:29:07.220Z,0.90
2022-09-13T10:31:43.726Z,1.13
2022-09-13T10:34:20.585Z,1.00
2022-09-13T10:37:19.191Z,1.25
2022-09-13T10:40:17.725Z,1.13
2022-09-13T10:42:54.872Z,1.13
2022-09-13T10:45:25.236Z,1.27
2022-09-13T10:47:55.260Z,1.30
2022-09-13T10:50:27.031Z,1.40
2022-09-13T10:52:56.155Z,0.73
2022-09-13T10:55:29.329Z,1.20
2022-09-13T10:58:16.646Z,1.30
2022-09-13T11:00:58.811Z,1.17
2022-09-13T11:04:11.878Z,0.90
2022-09-13T11:07:13.484Z,1.00
2022-09-13T11:09:59.019Z,1.35
2022-09-13T11:12:42.343Z,1.27
2022-09-13T11:15:18.121Z,0.90
2022-09-13T11:17:54.064Z,1.00
2022-09-13T11:20:47.997Z,1.42
2022-09-13T11:23:32.564Z,0.95
2022-09-13T11:26:30.676Z,0.90
2022-09-13T11:29:09.576Z,0.90
2022-09-13T11:31:55.419Z,0.70
2022-09-13T11:34:33.176Z,0.60
2022-09-13T11:37:25.061Z,0.73
2022-09-13T11:40:29.192Z,1.33
2022-09-13T11:43:24.536Z,1.02
2022-09-13T11:46:06.068Z,0.90
2022-09-13T11:48:38.913Z,0.80
2022-09-13T11:51:25.134Z,0.93
2022-09-13T11:54:18.805Z,0.80
2022-09-13T11:56:50.617Z,1.00
2022-09-13T11:59:37.453Z,0.93
2022-09-13T12:02:14.981Z,0.80
2022-09-13T12:05:20.523Z,0.90
2022-09-13T12:07:50.477Z,0.70
2022-09-13T12:10:25.882Z,0.90
2022-09-13T12:12:55.017Z,0.70
2022-09-13T12:15:22.049Z,0.60
2022-09-13T12:17:56.226Z,0.70
2022-09-13T12:20:31.182Z,0.90
2022-09-13T12:23:01.626Z,0.68
2022-09-13T12:25:39.321Z,0.70
2022-09-13T12:28:19.310Z,0.80
2022-09-13T12:30:53.794Z,0.80
2022-09-13T12:33:21.118Z,0.90
2022-09-13T12:36:01.301Z,0.80
2022-09-13T12:38:53.126Z,1.48
2022-09-13T12:41:23.262Z,1.10
2022-09-13T12:44:11.203Z,0.70
2022-09-13T12:46:52.312Z,1.40
2022-09-13T12:49:28.900Z,0.90
2022-09-13T12:52:26.758Z,0.87
2022-09-13T12:54:55.246Z,1.05
2022-09-13T12:57:31.230Z,0.87
2022-09-13T13:00:30.210Z,2.17
2022-09-13T13:03:05.495Z,0.90
2022-09-13T13:05:49.410Z,1.20
2022-09-13T13:08:19.477Z,1.27
2022-09-13T13:11:06.825Z,1.20
2022-09-13T13:13:40.583Z,1.50
2022-09-13T13:16:22.874Z,1.08
2022-09-13T13:18:52.206Z,1.40
2022-09-13T13:21:22.971Z,1.80
2022-09-13T13:24:15.707Z,1.83
2022-09-13T13:26:54.437Z,1.43
2022-09-13T13:29:27.187Z,1.83
2022-09-13T13:32:07.640Z,1.73
2022-09-13T13:34:50.095Z,1.08
2022-09-13T13:37:19.864Z,1.00
2022-09-13T13:39:49.009Z,1.90
2022-09-13T13:42:16.089Z,1.02
2022-09-13T13:44:43.293Z,1.27
2022-09-13T13:47:13.360Z,1.00
2022-09-13T13:49:40.641Z,1.33
2022-09-13T13:52:13.742Z,1.00
2022-09-13T13:54:50.525Z,1.02
2022-09-13T13:57:42.328Z,1.40
2022-09-13T14:00:23.517Z,0.80
2022-09-13T14:02:50.525Z,0.80
2022-09-13T14:05:25.269Z,0.80
2022-09-13T14:08:13.666Z,0.98
2022-09-13T14:11:03.049Z,1.00
2022-09-13T14:14:15.830Z,1.30
2022-09-13T14:17:07.728Z,2.05
2022-09-13T14:19:42.705Z,0.80
2022-09-13T14:22:21.906Z,0.93
2022-09-13T14:24:51.822Z,0.90
2022-09-13T14:27:28.052Z,2.50
2022-09-13T14:29:58.337Z,1.63
2022-09-13T14:32:42.158Z,1.38
2022-09-13T14:35:25.433Z,1.90
2022-09-13T14:37:52.674Z,2.78
2022-09-13T14:40:19.843Z,1.70
2022-09-13T14:42:50.035Z,1.40
2022-09-13T14:45:25.914Z,1.73
2022-09-13T14:48:07.614Z,1.03
2022-09-13T14:50:40.199Z,1.40
2022-09-13T14:53:16.310Z,1.30
2022-09-13T14:55:49.046Z,1.52
2022-09-13T14:58:22.362Z,3.00
2022-09-13T15:00:57.580Z,1.50
2022-09-13T15:03:25.966Z,3.55
2022-09-13T15:05:59.315Z,1.33
2022-09-13T15:08:32.560Z,2.13
2022-09-13T15:11:02.024Z,1.77
2022-09-13T15:13:29.338Z,1.50
2022-09-13T15:15:56.395Z,1.20
2022-09-13T15:18:41.401Z,1.95
2022-09-13T15:21:20.699Z,0.80
2022-09-13T15:23:51.169Z,2.30
2022-09-13T15:26:23.929Z,1.73
2022-09-13T15:29:04.071Z,1.60
2022-09-13T15:31:33.371Z,2.00
2022-09-13T15:34:20.251Z,1.25
2022-09-13T15:37:08.976Z,2.22
2022-09-13T15:39:48.459Z,1.90
2022-09-13T15:42:17.301Z,2.20
2022-09-13T15:44:44.504Z,2.00
2022-09-13T15:47:17.225Z,1.10
2022-09-13T15:49:50.504Z,1.10
2022-09-13T15:52:20.976Z,1.50
2022-09-13T15:54:50.048Z,1.38
2022-09-13T15:57:23.589Z,1.40
2022-09-13T15:59:50.924Z,1.48
2022-09-13T16:02:23.939Z,0.90
2022-09-13T16:04:51.721Z,2.45
2022-09-13T16:07:19.289Z,0.95
2022-09-13T16:09:46.918Z,2.05
2022-09-13T16:12:14.588Z,1.05
2022-09-13T16:14:41.867Z,1.05
2022-09-13T16:17:22.742Z,0.88
2022-09-13T16:19:50.165Z,0.70
2022-09-13T16:22:17.546Z,0.73
2022-09-13T16:24:44.627Z,0.70
2022-09-13T16:27:16.525Z,0.82
2022-09-13T16:29:44.487Z,0.70
2022-09-13T16:32:11.746Z,0.70
2022-09-13T16:34:38.854Z,0.70
2022-09-13T16:37:06.182Z,0.97
2022-09-13T16:39:33.218Z,0.80
2022-09-13T16:42:00.262Z,0.60
2022-09-13T16:44:27.278Z,0.80
2022-09-13T16:46:54.401Z,0.73
2022-09-13T16:49:21.511Z,0.70
2022-09-13T16:51:48.876Z,0.80
2022-09-13T16:54:16.406Z,0.70
2022-09-13T16:56:43.574Z,0.60
2022-09-13T16:59:10.607Z,0.70
2022-09-13T17:01:37.821Z,0.98
2022-09-13T17:04:05.798Z,0.80
2022-09-13T17:06:32.844Z,2.15
2022-09-13T17:09:02.923Z,3.05
2022-09-13T17:11:32.969Z,3.65
2022-09-13T17:14:02.235Z,2.28
2022-09-13T17:16:32.121Z,2.10
2022-09-13T17:19:02.068Z,1.42
2022-09-13T17:21:30.316Z,1.17
2022-09-13T17:23:57.448Z,1.37
2022-09-13T17:26:24.480Z,1.17
2022-09-13T17:28:52.551Z,0.70
2022-09-13T17:31:20.160Z,0.50
2022-09-13T17:33:47.364Z,0.95
2022-09-13T17:36:14.892Z,0.77
2022-09-13T17:38:42.614Z,0.95
2022-09-13T17:41:12.500Z,0.80
2022-09-13T17:43:41.616Z,0.80
2022-09-13T17:46:15.310Z,0.90
2022-09-13T17:48:43.140Z,1.67
2022-09-13T17:51:12.564Z,0.77
2022-09-13T17:53:46.012Z,1.30
2022-09-13T17:56:21.424Z,1.55
2022-09-13T17:58:48.840Z,2.60
2022-09-13T18:01:16.294Z,1.52
2022-09-13T18:03:44.094Z,1.02
2022-09-13T18:06:13.937Z,1.98
2022-09-13T18:08:41.713Z,1.50
2022-09-13T18:11:14.146Z,0.90
2022-09-13T18:13:43.294Z,1.13
2022-09-13T18:16:20.935Z,1.10
2022-09-13T18:18:50.846Z,0.95
2022-09-13T18:21:20.406Z,0.88
2022-09-13T18:23:49.741Z,1.10
2022-09-13T18:26:19.431Z,1.80
2022-09-13T18:28:47.359Z,1.30
2022-09-13T18:31:17.115Z,1.10
2022-09-13T18:33:45.133Z,0.95
2022-09-13T18:36:17.615Z,0.77
2022-09-13T18:38:46.855Z,0.95
2022-09-13T18:41:19.641Z,1.10
2022-09-13T18:43:54.930Z,1.20
2022-09-13T18:46:25.371Z,1.20
2022-09-13T18:48:57.189Z,1.03
2022-09-13T18:51:29.781Z,1.58
2022-09-13T18:53:58.391Z,1.38
2022-09-13T18:56:26.757Z,1.40
2022-09-13T18:58:56.674Z,1.33
2022-09-13T19:01:27.034Z,1.10
2022-09-13T19:03:56.762Z,1.70
2022-09-13T19:06:25.625Z,0.83
2022-09-13T19:08:58.841Z,1.70
2022-09-13T19:11:55.470Z,1.27
2022-09-13T19:14:27.281Z,1.70
2022-09-13T19:16:56.953Z,1.00
2022-09-13T19:19:24.859Z,0.80
2022-09-13T19:21:56.314Z,1.20
2022-09-13T19:24:24.442Z,1.30
2022-09-13T19:26:59.784Z,0.80
2022-09-13T19:29:30.109Z,0.90
2022-09-13T19:31:58.135Z,0.90
2022-09-13T19:34:28.036Z,1.08
2022-09-13T19:37:02.164Z,1.10
2022-09-13T19:39:35.297Z,1.40
2022-09-13T19:42:03.228Z,1.13
2022-09-13T19:44:34.398Z,1.15
2022-09-13T19:48:13.040Z,1.20
2022-09-13T19:50:04.117Z,1.10
2022-09-13T19:52:32.019Z,1.40
2022-09-13T19:55:06.928Z,1.30
2022-09-13T19:57:37.030Z,1.13
2022-09-13T20:00:07.186Z,1.00
2022-09-13T20:02:44.363Z,1.38
2022-09-13T20:05:13.478Z,0.95
2022-09-13T20:07:45.330Z,1.58
2022-09-13T20:10:15.795Z,1.20
2022-09-13T20:12:43.631Z,1.40
2022-09-13T20:15:10.943Z,1.50
2022-09-13T20:17:41.150Z,1.23
2022-09-13T20:20:08.738Z,1.23
2022-09-13T20:22:37.843Z,1.25
2022-09-13T20:25:08.771Z,1.05
2022-09-13T20:27:38.671Z,1.17
2022-09-13T20:30:11.209Z,1.20
2022-09-13T20:32:40.995Z,0.93
2022-09-13T20:35:09.306Z,0.90
2022-09-13T20:37:36.926Z,1.23
2022-09-13T20:40:07.316Z,0.90
2022-09-13T20:42:35.690Z,1.10
2022-09-13T20:45:03.174Z,0.80
2022-09-13T20:47:31.348Z,1.17
2022-09-13T20:49:58.452Z,0.70
2022-09-13T20:52:25.615Z,0.88
2022-09-13T20:54:52.699Z,0.80
2022-09-13T20:57:19.766Z,1.35
2022-09-13T20:59:46.951Z,1.00
2022-09-13T21:02:14.110Z,1.38
2022-09-13T21:04:41.218Z,1.15
2022-09-13T21:07:29.037Z,1.02
2022-09-13T21:10:00.383Z,1.27
2022-09-13T21:12:28.182Z,1.40
2022-09-13T21:14:55.786Z,1.17
2022-09-13T21:17:22.860Z,0.80
2022-09-13T21:19:49.900Z,1.25
2022-09-13T21:22:16.959Z,1.10
2022-09-13T21:24:44.671Z,1.10
2022-09-13T21:27:12.145Z,1.00
2022-09-13T21:29:39.262Z,1.40
2022-09-13T21:32:06.600Z,1.38
2022-09-13T21:34:33.674Z,1.48
2022-09-13T21:37:00.725Z,1.20
2022-09-13T21:39:29.757Z,1.70
2022-09-13T21:41:56.785Z,1.42
2022-09-13T21:44:23.887Z,1.00
2022-09-13T21:46:51.544Z,1.25
2022-09-13T21:49:18.579Z,1.50
2022-09-13T21:51:48.272Z,1.00
2022-09-13T21:54:17.595Z,0.98
2022-09-13T21:56:50.359Z,2.22
2022-09-13T21:59:18.971Z,1.75
2022-09-13T22:01:50.249Z,1.55
2022-09-13T22:04:24.535Z,2.80
2022-09-13T22:06:53.359Z,3.58
2022-09-13T22:09:23.216Z,3.33
2022-09-13T22:11:50.568Z,2.10
2022-09-13T22:14:19.757Z,2.20
2022-09-13T22:16:47.196Z,1.43
2022-09-13T22:19:20.323Z,1.35
2022-09-13T22:21:49.286Z,4.03
2022-09-13T22:24:22.338Z,2.53
2022-09-13T22:26:52.227Z,2.40
2022-09-13T22:29:20.281Z,2.28
2022-09-13T22:31:50.425Z,1.60
2022-09-13T22:34:21.277Z,1.45
2022-09-13T22:36:48.767Z,1.55
2022-09-13T22:39:17.001Z,1.90
2022-09-13T22:41:44.690Z,1.25
2022-09-13T22:44:12.261Z,1.30
2022-09-13T22:46:44.363Z,1.27
2022-09-13T22:49:14.293Z,1.20
2022-09-13T22:51:41.958Z,1.02
2022-09-13T22:54:09.019Z,1.38
2022-09-13T22:56:37.205Z,1.60
2022-09-13T22:59:10.818Z,1.20
2022-09-13T23:01:38.174Z,1.30
2022-09-13T23:04:06.581Z,2.03
2022-09-13T23:06:34.751Z,1.25
2022-09-13T23:09:05.440Z,1.65
2022-09-13T23:11:38.235Z,1.40
2022-09-13T23:14:11.906Z,1.52
2022-09-13T23:16:45.089Z,1.67
2022-09-13T23:19:13.481Z,1.40
2022-09-13T23:21:41.548Z,1.05
2022-09-13T23:24:12.806Z,1.38
2022-09-13T23:26:39.955Z,1.20
2022-09-13T23:29:07.278Z,1.35
2022-09-13T23:31:37.489Z,1.20
2022-09-13T23:34:06.059Z,0.95
2022-09-13T23:36:38.061Z,1.55
2022-09-13T23:39:07.877Z,1.20
2022-09-13T23:41:35.380Z,1.33
2022-09-13T23:44:03.328Z,1.58
2022-09-13T23:46:31.074Z,1.38
2022-09-13T23:48:58.195Z,1.40
2022-09-13T23:51:26.737Z,1.23
2022-09-13T23:54:00.778Z,1.15
2022-09-13T23:56:30.515Z,0.90
2022-09-13T23:58:58.836Z,0.95
